Time;durP1;ratioP1;P1;durP2;ratioP2;P2;SDS_P1;SDS_P2;PMS_P1;PMS_P2;Temp;Humidity;BMP_temperature;BMP_pressure;BME280_temperature;BME280_humidity;BME280_pressure;Samples;Min_cycle;Max_cycle;Signal;HPM_P1;HPM_P2
2020/12/22 00:01:26;;;;;;;0.82;0.50;;;17.00;68.90;;;;;;10475616;28;20546;-62
2020/12/22 00:06:26;;;;;;;1.10;0.50;;;16.90;68.90;;;;;;10499656;28;20097;-61
2020/12/22 00:11:27;;;;;;;1.42;0.60;;;16.90;68.90;;;;;;10498388;28;20021;-61
2020/12/22 00:16:36;;;;;;;2.17;0.90;;;16.90;68.90;;;;;;10498050;28;20121;-61
2020/12/22 00:21:37;;;;;;;1.00;0.60;;;16.80;69.00;;;;;;10498740;28;20111;-61
2020/12/22 00:26:38;;;;;;;1.40;0.60;;;16.90;69.00;;;;;;10499165;28;20044;-62
2020/12/22 00:31:39;;;;;;;1.75;0.88;;;16.80;69.10;;;;;;10498568;28;20031;-62
2020/12/22 00:36:39;;;;;;;1.30;0.60;;;16.80;69.20;;;;;;10498191;28;20115;-62
2020/12/22 00:41:40;;;;;;;1.63;0.80;;;16.80;69.20;;;;;;10498230;28;20091;-62
2020/12/22 00:46:41;;;;;;;1.27;0.60;;;16.80;69.20;;;;;;10493185;28;20453;-62
2020/12/22 00:51:41;;;;;;;0.98;0.55;;;16.80;69.30;;;;;;10497672;28;20032;-61
2020/12/22 00:56:46;;;;;;;1.08;0.70;;;16.80;69.20;;;;;;10513370;28;20454;-62
2020/12/22 01:01:47;;;;;;;1.42;0.70;;;16.80;69.30;;;;;;10497579;28;20377;-62
2020/12/22 01:06:48;;;;;;;1.55;0.52;;;16.80;69.30;;;;;;10496192;28;20043;-60
2020/12/22 01:11:49;;;;;;;2.92;0.80;;;16.80;69.30;;;;;;10492131;28;20035;-61
2020/12/22 01:16:49;;;;;;;1.30;0.75;;;16.70;69.30;;;;;;10494786;28;20032;-61
2020/12/22 01:21:54;;;;;;;1.00;0.60;;;16.70;69.30;;;;;;10496939;28;20388;-62
2020/12/22 01:26:55;;;;;;;1.73;0.60;;;16.70;69.30;;;;;;10489756;28;20107;-62
2020/12/22 01:31:56;;;;;;;1.90;0.60;;;16.70;69.30;;;;;;10496121;28;20427;-62
2020/12/22 01:36:56;;;;;;;0.85;0.60;;;16.70;69.30;;;;;;10496312;28;20115;-61
2020/12/22 01:41:57;;;;;;;0.65;0.50;;;16.70;69.30;;;;;;10496591;28;20107;-60
2020/12/22 01:46:58;;;;;;;0.85;0.50;;;16.60;69.40;;;;;;10496306;28;20025;-61
2020/12/22 01:51:59;;;;;;;2.88;0.57;;;16.70;69.40;;;;;;10512065;28;20426;-62
2020/12/22 01:57:11;;;;;;;1.00;0.63;;;16.70;69.40;;;;;;10496212;28;20025;-61
2020/12/22 02:02:11;;;;;;;2.20;0.77;;;16.60;69.40;;;;;;10496152;28;20062;-61
2020/12/22 02:07:13;;;;;;;0.47;0.45;;;16.70;70.20;;;;;;10495845;28;20055;-61
2020/12/22 02:12:13;;;;;;;1.55;0.63;;;16.60;69.50;;;;;;10495964;28;20099;-61
2020/12/22 02:17:14;;;;;;;0.98;0.50;;;16.60;69.50;;;;;;10495654;28;20103;-61
2020/12/22 02:22:15;;;;;;;0.98;0.50;;;16.60;69.60;;;;;;10495653;28;20108;-61
2020/12/22 02:27:16;;;;;;;1.10;0.40;;;16.60;69.60;;;;;;10495760;28;20023;-61
2020/12/22 02:32:17;;;;;;;0.68;0.50;;;16.60;69.70;;;;;;10495341;28;20111;-61
2020/12/22 02:37:21;;;;;;;1.08;0.40;;;16.60;69.70;;;;;;10490047;28;20103;-61
2020/12/22 02:42:22;;;;;;;0.77;0.47;;;16.60;69.80;;;;;;10495382;28;20036;-61
2020/12/22 02:47:23;;;;;;;1.05;0.40;;;16.60;69.80;;;;;;10501293;28;20036;-60
2020/12/22 02:52:24;;;;;;;1.35;0.80;;;16.60;69.80;;;;;;10502563;28;20017;-61
2020/12/22 02:57:24;;;;;;;1.70;0.50;;;16.60;70.00;;;;;;10493196;28;20103;-61
2020/12/22 03:02:25;;;;;;;0.65;0.50;;;16.50;69.90;;;;;;10502460;28;20024;-62
2020/12/22 03:07:26;;;;;;;0.82;0.52;;;16.60;70.00;;;;;;10501959;28;20190;-61
2020/12/22 03:12:26;;;;;;;1.95;0.60;;;16.60;70.10;;;;;;10502037;28;20107;-60
2020/12/22 03:17:28;;;;;;;0.55;0.40;;;16.50;70.00;;;;;;10501703;28;20453;-61
2020/12/22 03:22:28;;;;;;;0.45;0.40;;;16.50;70.10;;;;;;10501451;28;20019;-62
2020/12/22 03:27:29;;;;;;;0.63;0.50;;;16.50;70.10;;;;;;10501017;28;20031;-61
2020/12/22 03:32:30;;;;;;;1.02;0.60;;;16.50;70.10;;;;;;10500339;28;20489;-60
2020/12/22 03:37:31;;;;;;;1.00;0.60;;;16.50;70.30;;;;;;10500675;28;20384;-61
2020/12/22 03:42:32;;;;;;;0.40;0.40;;;16.50;70.20;;;;;;10500403;28;20027;-60
2020/12/22 03:47:34;;;;;;;0.90;0.50;;;16.50;70.20;;;;;;10499300;28;20032;-61
2020/12/22 03:52:37;;;;;;;0.70;0.60;;;16.50;70.20;;;;;;10499346;28;20413;-61
2020/12/22 03:57:38;;;;;;;1.25;0.55;;;16.50;70.30;;;;;;10499499;28;20036;-61
2020/12/22 04:02:39;;;;;;;1.38;0.60;;;16.50;70.30;;;;;;10499939;28;20388;-61
2020/12/22 04:07:39;;;;;;;0.82;0.50;;;16.50;70.30;;;;;;10499871;28;20547;-62
2020/12/22 04:12:40;;;;;;;1.08;0.70;;;16.50;70.30;;;;;;10499667;28;20036;-61
2020/12/22 04:17:41;;;;;;;0.73;0.70;;;16.50;70.40;;;;;;10496052;28;20108;-61
2020/12/22 04:22:42;;;;;;;0.50;0.38;;;16.40;70.30;;;;;;10498994;28;20020;-60
2020/12/22 04:27:43;;;;;;;0.88;0.30;;;16.40;70.40;;;;;;10498915;28;20557;-62
2020/12/22 04:32:43;;;;;;;3.72;0.70;;;16.40;70.50;;;;;;10498570;28;20028;-61
2020/12/22 04:37:44;;;;;;;0.85;0.50;;;16.40;70.40;;;;;;10498590;28;20437;-61
2020/12/22 04:42:46;;;;;;;0.25;0.25;;;16.40;70.50;;;;;;10498705;28;20461;-61
2020/12/22 04:47:48;;;;;;;0.50;0.40;;;16.40;70.50;;;;;;10496750;28;20032;-61
2020/12/22 04:52:52;;;;;;;0.75;0.50;;;16.40;70.50;;;;;;10496644;28;20032;-60
2020/12/22 04:57:55;;;;;;;0.90;0.45;;;16.40;70.50;;;;;;10496574;28;20035;-61
2020/12/22 05:02:57;;;;;;;0.70;0.40;;;16.40;70.60;;;;;;10497489;28;20872;-60
2020/12/22 05:07:58;;;;;;;0.75;0.50;;;16.40;70.50;;;;;;10491744;28;20131;-62
2020/12/22 05:12:59;;;;;;;0.55;0.47;;;16.40;70.50;;;;;;10493928;28;20514;-62
2020/12/22 05:18:02;;;;;;;1.60;0.60;;;16.40;70.60;;;;;;10495917;28;20415;-61
2020/12/22 05:23:03;;;;;;;0.60;0.40;;;16.40;70.60;;;;;;10497000;28;20033;-61
2020/12/22 05:28:07;;;;;;;0.75;0.40;;;16.40;70.60;;;;;;10497008;28;20103;-61
2020/12/22 05:33:07;;;;;;;0.68;0.40;;;16.40;70.50;;;;;;10496899;28;20028;-61
2020/12/22 05:38:08;;;;;;;0.70;0.60;;;16.30;70.50;;;;;;10496907;28;20025;-61
2020/12/22 05:43:10;;;;;;;0.60;0.40;;;16.40;70.60;;;;;;10496613;28;20036;-62
2020/12/22 05:48:15;;;;;;;0.80;0.40;;;16.40;70.60;;;;;;10496300;28;20543;-61
2020/12/22 05:53:15;;;;;;;0.43;0.35;;;16.30;70.50;;;;;;10496235;28;20032;-60
2020/12/22 05:58:18;;;;;;;0.65;0.40;;;16.30;70.50;;;;;;10496389;28;20092;-60
2020/12/22 06:03:20;;;;;;;0.65;0.40;;;16.30;70.60;;;;;;10496211;28;20547;-61
2020/12/22 06:08:21;;;;;;;0.73;0.30;;;16.30;70.60;;;;;;10494809;28;20561;-61
2020/12/22 06:13:23;;;;;;;0.90;0.50;;;16.30;70.60;;;;;;10494350;28;20032;-58
2020/12/22 06:18:24;;;;;;;0.80;0.40;;;16.30;70.60;;;;;;10494646;28;20017;-62
2020/12/22 06:23:25;;;;;;;0.57;0.47;;;16.30;70.70;;;;;;10504395;28;20037;-61
2020/12/22 06:28:29;;;;;;;1.80;0.40;;;16.40;70.70;;;;;;10503490;28;20380;-61
2020/12/22 06:33:35;;;;;;;1.50;0.50;;;16.60;69.80;;;;;;10502006;28;20033;-61
2020/12/22 06:38:58;;;;;;;1.52;0.55;;;17.20;68.10;;;;;;10502227;28;20020;-61
2020/12/22 06:44:21;;;;;;;0.90;0.40;;;17.60;66.80;;;;;;10500957;28;20060;-60
2020/12/22 06:49:51;;;;;;;1.02;0.30;;;17.80;66.10;;;;;;10501604;28;20035;-60
2020/12/22 06:54:52;;;;;;;5.03;1.35;;;23.90;56.80;;;;;;10484724;28;20028;-60
2020/12/22 06:59:53;;;;;;;6.25;0.80;;;27.80;46.60;;;;;;10502454;28;20033;-61
2020/12/22 07:04:53;;;;;;;6.75;0.70;;;29.20;43.40;;;;;;10502311;28;20445;-67
2020/12/22 07:10:05;;;;;;;2.63;0.47;;;30.00;41.90;;;;;;10500609;28;20492;-68
2020/12/22 07:15:06;;;;;;;6.10;0.77;;;30.30;41.20;;;;;;10500609;28;20111;-64
2020/12/22 07:20:08;;;;;;;1.17;0.43;;;30.30;41.60;;;;;;10501566;28;20025;-62
2020/12/22 07:25:08;;;;;;;3.17;0.57;;;30.40;41.40;;;;;;10492779;28;20039;-60
2020/12/22 07:30:09;;;;;;;8.40;1.10;;;30.30;41.50;;;;;;10497494;28;20364;-61
2020/12/22 07:35:13;;;;;;;4.45;0.68;;;30.40;41.10;;;;;;10498364;28;20119;-60
2020/12/22 07:40:13;;;;;;;8.38;1.08;;;30.30;41.30;;;;;;10501004;28;20021;-61
2020/12/22 07:45:14;;;;;;;3.97;0.80;;;30.40;40.90;;;;;;10500686;28;20044;-61
2020/12/22 07:50:16;;;;;;;6.85;1.13;;;30.40;41.10;;;;;;10497870;28;20060;-55
2020/12/22 07:55:17;;;;;;;8.73;1.13;;;30.40;41.10;;;;;;10498713;28;20017;-58
2020/12/22 08:00:20;;;;;;;7.10;1.02;;;29.50;40.90;;;;;;10497192;28;20025;-59
2020/12/22 08:05:21;;;;;;;15.65;1.60;;;30.50;40.60;;;;;;10497829;28;20029;-57
2020/12/22 08:10:24;;;;;;;9.25;1.23;;;30.90;40.30;;;;;;10498341;28;20049;-59
2020/12/22 08:15:25;;;;;;;8.93;1.30;;;31.40;39.30;;;;;;10499490;28;20444;-58
2020/12/22 08:20:25;;;;;;;11.05;1.10;;;31.60;38.60;;;;;;10497782;28;20024;-59
2020/12/22 08:25:26;;;;;;;8.02;1.10;;;31.50;38.80;;;;;;10503813;28;20029;-57
2020/12/22 08:30:29;;;;;;;12.32;1.98;;;31.50;39.00;;;;;;10493748;28;20154;-56
2020/12/22 08:35:29;;;;;;;8.02;1.38;;;31.30;39.20;;;;;;10493677;28;20052;-60
2020/12/22 08:40:32;;;;;;;8.18;1.33;;;27.80;40.80;;;;;;10494866;28;20103;-59
2020/12/22 08:45:33;;;;;;;10.43;1.85;;;23.20;50.80;;;;;;10497240;28;20449;-59
2020/12/22 08:50:52;;;;;;;5.65;0.98;;;21.10;56.60;;;;;;10493289;28;20171;-59
2020/12/22 08:56:08;;;;;;;6.72;0.90;;;20.10;60.20;;;;;;10496349;28;20059;-59
2020/12/22 09:01:21;;;;;;;5.00;1.52;;;19.60;61.70;;;;;;10494084;28;20055;-59
2020/12/22 09:06:36;;;;;;;3.13;0.98;;;19.40;62.70;;;;;;10493914;28;20388;-56
2020/12/22 09:11:38;;;;;;;3.83;0.70;;;19.10;63.40;;;;;;10494137;28;20036;-59
2020/12/22 09:16:55;;;;;;;1.98;0.80;;;19.00;63.70;;;;;;10496581;28;20067;-59
2020/12/22 09:21:58;;;;;;;3.25;0.68;;;19.00;64.20;;;;;;10496992;28;20103;-59
2020/12/22 09:27:11;;;;;;;4.45;0.63;;;18.90;64.50;;;;;;10497799;28;20061;-59
2020/12/22 09:32:12;;;;;;;2.20;0.60;;;18.80;64.70;;;;;;10496910;28;20025;-59
2020/12/22 09:37:13;;;;;;;3.20;1.48;;;18.80;64.80;;;;;;10496536;28;20035;-59
2020/12/22 09:42:13;;;;;;;5.53;0.85;;;18.80;65.00;;;;;;10496431;28;20046;-59
2020/12/22 09:47:15;;;;;;;2.88;0.90;;;18.80;65.00;;;;;;10496360;28;20173;-59
2020/12/22 09:52:16;;;;;;;2.08;0.60;;;18.70;65.30;;;;;;10488674;28;20044;-59
2020/12/22 09:57:16;;;;;;;3.97;0.90;;;18.80;65.30;;;;;;10502846;28;20028;-59
2020/12/22 10:02:17;;;;;;;2.55;0.88;;;18.70;65.60;;;;;;10503928;28;20032;-59
2020/12/22 10:07:18;;;;;;;3.13;0.70;;;18.80;65.40;;;;;;10496303;28;20170;-59
2020/12/22 10:12:18;;;;;;;4.95;1.13;;;18.70;65.70;;;;;;10503723;28;20469;-59
2020/12/22 10:17:19;;;;;;;2.22;0.57;;;18.70;65.50;;;;;;10498612;28;20107;-59
2020/12/22 10:22:20;;;;;;;3.58;0.52;;;18.60;65.80;;;;;;10502593;28;20021;-59
2020/12/22 10:27:21;;;;;;;3.55;0.75;;;18.60;65.80;;;;;;10503808;28;20381;-61
2020/12/22 10:32:22;;;;;;;8.23;1.27;;;18.60;66.00;;;;;;10499638;28;20047;-61
2020/12/22 10:37:23;;;;;;;10.88;1.27;;;18.60;66.60;;;;;;10502574;28;20039;-60
2020/12/22 10:42:23;;;;;;;4.40;1.00;;;18.70;67.30;;;;;;10503025;28;20082;-59
2020/12/22 10:47:24;;;;;;;13.23;1.50;;;18.70;67.30;;;;;;10500685;28;20496;-59
2020/12/22 10:52:25;;;;;;;7.75;1.38;;;18.70;66.90;;;;;;10501895;28;20103;-58
2020/12/22 10:57:25;;;;;;;6.10;1.40;;;18.60;67.20;;;;;;10495596;28;20108;-58
2020/12/22 11:02:26;;;;;;;12.63;1.75;;;18.60;67.40;;;;;;10487359;28;20024;-62
2020/12/22 11:07:35;;;;;;;9.88;2.22;;;18.60;67.60;;;;;;10500231;28;20064;-57
2020/12/22 11:12:36;;;;;;;8.98;2.17;;;18.70;67.70;;;;;;10497699;28;20024;-57
2020/12/22 11:17:37;;;;;;;12.07;2.42;;;18.70;67.80;;;;;;10497909;28;20040;-57
2020/12/22 11:22:37;;;;;;;9.68;1.80;;;18.70;68.00;;;;;;10497972;28;20103;-59
2020/12/22 11:27:38;;;;;;;10.52;2.00;;;18.70;67.90;;;;;;10501444;28;20504;-58
2020/12/22 11:32:40;;;;;;;11.23;2.45;;;18.80;67.90;;;;;;10500852;28;20392;-59
2020/12/22 11:37:41;;;;;;;10.10;1.58;;;18.70;68.00;;;;;;10497497;28;20383;-59
2020/12/22 11:42:42;;;;;;;8.07;1.70;;;18.60;68.40;;;;;;10500572;28;20035;-58
2020/12/22 11:47:43;;;;;;;6.20;1.50;;;18.60;68.60;;;;;;10499114;28;20029;-59
2020/12/22 11:52:43;;;;;;;9.32;1.90;;;18.60;69.00;;;;;;10501089;28;20077;-59
2020/12/22 11:57:45;;;;;;;8.45;1.42;;;18.60;68.80;;;;;;10499856;28;20025;-60
2020/12/22 12:02:46;;;;;;;6.18;1.33;;;18.70;68.70;;;;;;10495979;28;20385;-60
2020/12/22 12:07:47;;;;;;;16.08;2.55;;;18.70;68.50;;;;;;10493255;28;20128;-57
2020/12/22 12:12:48;;;;;;;7.18;1.80;;;18.60;68.60;;;;;;10498081;28;20039;-57
2020/12/22 12:17:48;;;;;;;10.55;2.00;;;18.50;68.70;;;;;;10494309;28;20032;-56
2020/12/22 12:22:49;;;;;;;18.95;2.88;;;18.60;69.40;;;;;;10496929;28;20517;-57
2020/12/22 12:27:50;;;;;;;7.50;2.33;;;18.70;69.60;;;;;;10497159;28;20372;-58
2020/12/22 12:32:50;;;;;;;16.33;1.90;;;18.60;70.00;;;;;;10497616;28;20115;-58
2020/12/22 12:37:51;;;;;;;8.93;1.67;;;18.60;70.20;;;;;;10498567;28;20021;-57
2020/12/22 12:42:52;;;;;;;5.55;1.40;;;18.50;69.40;;;;;;10498745;28;20356;-58
2020/12/22 12:47:53;;;;;;;8.90;1.30;;;18.40;69.30;;;;;;10498254;28;20134;-57
2020/12/22 12:52:53;;;;;;;8.30;1.08;;;18.50;69.10;;;;;;10495932;28;20075;-56
2020/12/22 12:57:55;;;;;;;5.13;1.38;;;18.50;69.00;;;;;;10497818;28;20044;-57
2020/12/22 13:02:56;;;;;;;8.10;1.60;;;18.40;69.10;;;;;;10497475;28;20032;-58
2020/12/22 13:07:56;;;;;;;6.57;1.55;;;18.40;69.30;;;;;;10497128;28;20130;-58
2020/12/22 13:12:57;;;;;;;12.43;1.25;;;18.30;69.50;;;;;;10486050;28;20124;-57
2020/12/22 13:17:58;;;;;;;9.02;1.10;;;18.40;69.30;;;;;;10497281;28;20116;-58
2020/12/22 13:22:58;;;;;;;8.02;1.52;;;18.50;69.10;;;;;;10494770;28;20032;-57
2020/12/22 13:27:59;;;;;;;6.35;1.33;;;18.50;69.20;;;;;;10496912;28;20556;-58
2020/12/22 13:33:00;;;;;;;7.00;1.50;;;18.40;69.50;;;;;;10496730;28;20489;-57
2020/12/22 13:38:00;;;;;;;12.98;2.38;;;18.30;69.70;;;;;;10496725;28;20381;-57
2020/12/22 13:43:01;;;;;;;8.35;1.85;;;18.30;69.70;;;;;;10495224;28;20426;-57
2020/12/22 13:48:02;;;;;;;11.73;1.73;;;18.40;69.60;;;;;;10495261;28;20513;-58
2020/12/22 13:53:03;;;;;;;14.80;2.58;;;18.40;69.50;;;;;;10494569;28;20385;-58
2020/12/22 13:58:04;;;;;;;11.38;2.15;;;18.30;69.70;;;;;;10472492;28;20163;-58
2020/12/22 14:03:05;;;;;;;7.28;1.38;;;18.20;69.60;;;;;;10487099;28;20060;-57
2020/12/22 14:08:05;;;;;;;10.32;1.83;;;18.30;70.20;;;;;;10482719;28;20068;-59
2020/12/22 14:13:06;;;;;;;6.63;1.70;;;18.20;69.50;;;;;;10493935;28;20062;-58
2020/12/22 14:18:07;;;;;;;7.40;1.33;;;18.20;69.70;;;;;;10495643;28;20012;-59
2020/12/22 14:23:08;;;;;;;6.70;2.10;;;18.10;69.90;;;;;;10495590;28;20090;-59
2020/12/22 14:28:09;;;;;;;6.88;1.52;;;18.00;70.10;;;;;;10495352;28;20075;-59
2020/12/22 14:33:09;;;;;;;5.63;1.13;;;17.90;70.20;;;;;;10495347;28;20885;-58
2020/12/22 14:38:10;;;;;;;5.82;1.83;;;17.90;70.40;;;;;;10495221;28;20131;-58
2020/12/22 14:43:11;;;;;;;6.10;1.40;;;17.80;70.50;;;;;;10500983;28;20116;-58
2020/12/22 14:48:13;;;;;;;6.30;1.83;;;17.70;70.50;;;;;;10502843;28;20032;-59
2020/12/22 14:53:14;;;;;;;12.63;1.48;;;17.70;70.70;;;;;;10502623;28;20037;-58
2020/12/22 14:58:14;;;;;;;9.88;1.52;;;17.70;70.80;;;;;;10502589;28;20107;-58
2020/12/22 15:03:15;;;;;;;3.92;1.15;;;17.60;70.80;;;;;;10502234;28;20562;-58
2020/12/22 15:08:16;;;;;;;5.00;1.50;;;17.60;70.80;;;;;;10496165;28;20127;-58
2020/12/22 15:13:16;;;;;;;3.92;1.45;;;17.60;70.80;;;;;;10501782;28;20029;-58
2020/12/22 15:18:17;;;;;;;5.90;1.13;;;17.50;70.70;;;;;;10500105;28;20557;-58
2020/12/22 15:23:18;;;;;;;3.10;1.33;;;17.60;70.70;;;;;;10499087;28;20060;-60
2020/12/22 15:28:19;;;;;;;5.40;0.98;;;17.60;70.60;;;;;;10516950;28;20050;-59
2020/12/22 15:33:20;;;;;;;4.22;1.35;;;17.60;70.50;;;;;;10501564;28;20089;-59
2020/12/22 15:38:21;;;;;;;5.97;1.90;;;17.60;70.50;;;;;;10497210;28;20070;-59
2020/12/22 15:43:22;;;;;;;4.30;0.88;;;17.60;70.40;;;;;;10500656;28;20451;-58
2020/12/22 15:48:23;;;;;;;6.18;1.25;;;17.70;69.90;;;;;;10484172;28;20111;-59
2020/12/22 15:53:23;;;;;;;5.38;1.77;;;17.90;69.80;;;;;;10499233;28;20104;-59
2020/12/22 15:58:25;;;;;;;12.85;1.75;;;18.20;68.80;;;;;;10500192;28;20021;-59
2020/12/22 16:03:27;;;;;;;11.73;1.90;;;18.60;67.80;;;;;;10497839;28;20044;-59
2020/12/22 16:08:31;;;;;;;13.00;1.85;;;23.30;63.00;;;;;;10496664;28;20054;-59
2020/12/22 16:13:32;;;;;;;14.70;2.45;;;27.40;51.90;;;;;;10499283;28;20025;-59
2020/12/22 16:18:32;;;;;;;7.78;1.73;;;29.60;46.20;;;;;;10498712;28;20103;-60
2020/12/22 16:23:33;;;;;;;22.27;2.33;;;29.90;45.10;;;;;;10498724;28;20107;-60
2020/12/22 16:28:34;;;;;;;10.13;2.03;;;30.20;44.40;;;;;;10496562;28;20106;-59
2020/12/22 16:33:35;;;;;;;14.32;2.38;;;30.20;44.70;;;;;;10498571;28;20107;-60
2020/12/22 16:38:36;;;;;;;9.80;1.52;;;30.40;44.10;;;;;;10497897;28;20016;-59
2020/12/22 16:43:37;;;;;;;15.27;5.50;;;30.50;43.70;;;;;;10498638;28;20044;-60
2020/12/22 16:48:37;;;;;;;6.43;2.55;;;31.10;41.50;;;;;;10498424;28;20058;-59
2020/12/22 16:53:38;;;;;;;7.10;2.28;;;31.20;40.70;;;;;;10497727;28;20039;-60
2020/12/22 16:58:39;;;;;;;13.15;2.58;;;31.30;40.40;;;;;;10494441;28;20043;-61
2020/12/22 17:03:41;;;;;;;7.00;2.53;;;30.90;40.90;;;;;;10496104;28;20450;-60
2020/12/22 17:08:42;;;;;;;5.93;2.40;;;31.00;40.80;;;;;;10495243;28;20416;-61
2020/12/22 17:13:43;;;;;;;4.88;2.20;;;30.90;40.50;;;;;;10496235;28;20044;-61
2020/12/22 17:18:44;;;;;;;7.03;2.25;;;31.10;41.00;;;;;;10496804;28;20024;-59
2020/12/22 17:23:44;;;;;;;7.05;1.67;;;31.10;42.00;;;;;;10496745;28;20025;-60
2020/12/22 17:28:45;;;;;;;11.15;2.00;;;30.90;42.80;;;;;;10497313;28;20373;-59
2020/12/22 17:33:46;;;;;;;6.78;1.83;;;30.90;42.90;;;;;;10496846;28;20381;-58
2020/12/22 17:38:47;;;;;;;8.27;1.83;;;31.10;42.00;;;;;;10497039;28;20111;-58
2020/12/22 17:43:47;;;;;;;5.55;2.50;;;31.00;42.30;;;;;;10496957;28;20025;-58
2020/12/22 17:48:48;;;;;;;5.60;1.58;;;30.90;42.30;;;;;;10490055;28;20116;-58
2020/12/22 17:53:54;;;;;;;6.70;1.92;;;30.80;42.20;;;;;;10495469;28;20048;-59
2020/12/22 17:58:54;;;;;;;8.32;2.17;;;30.80;42.30;;;;;;10492238;28;20082;-59
2020/12/22 18:03:55;;;;;;;7.13;2.03;;;30.70;42.10;;;;;;10494397;28;20542;-59
2020/12/22 18:08:56;;;;;;;4.45;1.30;;;30.80;42.70;;;;;;10496042;28;20079;-58
2020/12/22 18:14:03;;;;;;;8.75;2.00;;;30.70;42.20;;;;;;10488409;28;20033;-59
2020/12/22 18:19:04;;;;;;;8.80;2.35;;;30.70;42.50;;;;;;10469967;28;20511;-58
2020/12/22 18:24:05;;;;;;;5.90;1.88;;;30.70;42.30;;;;;;10501778;28;20064;-59
2020/12/22 18:29:06;;;;;;;5.43;1.73;;;30.90;42.10;;;;;;10480163;28;20052;-59
2020/12/22 18:34:07;;;;;;;5.88;1.92;;;31.10;41.60;;;;;;10470218;28;20033;-59
2020/12/22 18:39:10;;;;;;;3.75;1.65;;;31.00;41.90;;;;;;10473142;28;20031;-58
2020/12/22 18:44:10;;;;;;;4.22;1.85;;;30.90;42.00;;;;;;10481773;28;20028;-57
2020/12/22 18:49:11;;;;;;;6.78;1.83;;;31.00;41.40;;;;;;10503037;28;20108;-58
2020/12/22 18:54:12;;;;;;;5.28;1.70;;;31.20;41.10;;;;;;10502772;28;20111;-58
2020/12/22 18:59:14;;;;;;;4.75;1.35;;;31.10;41.60;;;;;;10502529;28;20202;-58
2020/12/22 19:04:15;;;;;;;3.72;1.65;;;30.90;41.90;;;;;;10501413;28;20377;-58
2020/12/22 19:09:15;;;;;;;4.80;1.60;;;30.90;41.90;;;;;;10491032;28;20047;-59
2020/12/22 19:14:16;;;;;;;2.25;1.08;;;30.90;41.60;;;;;;10502194;28;20021;-58
2020/12/22 19:19:17;;;;;;;2.97;1.25;;;30.90;41.80;;;;;;10491778;28;20035;-58
2020/12/22 19:24:17;;;;;;;3.65;1.40;;;30.80;42.00;;;;;;10472220;28;20020;-58
2020/12/22 19:29:18;;;;;;;4.75;1.35;;;30.90;41.90;;;;;;10494096;28;20077;-58
2020/12/22 19:34:19;;;;;;;4.50;1.55;;;30.90;41.70;;;;;;10501085;28;20403;-58
2020/12/22 19:39:20;;;;;;;4.40;1.80;;;30.90;41.90;;;;;;10498204;28;20013;-58
2020/12/22 19:44:21;;;;;;;3.15;1.38;;;30.90;41.60;;;;;;10501004;28;20106;-58
2020/12/22 19:49:23;;;;;;;3.00;1.35;;;30.90;41.80;;;;;;10500616;28;20353;-59
2020/12/22 19:54:23;;;;;;;3.03;1.55;;;30.80;41.90;;;;;;10500718;28;20119;-58
2020/12/22 19:59:24;;;;;;;3.45;1.40;;;30.90;41.60;;;;;;10500412;28;20103;-59
2020/12/22 20:04:25;;;;;;;2.67;1.25;;;30.90;41.60;;;;;;10481851;28;20075;-58
2020/12/22 20:09:26;;;;;;;6.93;1.70;;;30.90;42.00;;;;;;10487235;28;20124;-59
2020/12/22 20:14:26;;;;;;;6.63;1.55;;;28.90;42.50;;;;;;10498557;28;20528;-55
2020/12/22 20:19:27;;;;;;;5.20;1.85;;;23.80;51.70;;;;;;10497426;28;20034;-56
2020/12/22 20:24:28;;;;;;;4.30;1.55;;;21.50;57.90;;;;;;10497364;28;20107;-58
2020/12/22 20:29:28;;;;;;;3.70;1.70;;;20.40;61.30;;;;;;10497013;28;20111;-57
2020/12/22 20:34:29;;;;;;;3.92;1.55;;;19.70;63.70;;;;;;10498012;28;20029;-58
2020/12/22 20:39:30;;;;;;;3.78;1.75;;;19.20;65.10;;;;;;10496975;28;20043;-58
2020/12/22 20:44:30;;;;;;;3.25;1.50;;;19.00;66.10;;;;;;10498671;28;20103;-58
2020/12/22 20:49:31;;;;;;;3.90;1.70;;;18.80;66.90;;;;;;10496753;28;20111;-57
2020/12/22 20:54:32;;;;;;;6.03;2.00;;;18.70;67.60;;;;;;10497774;28;20061;-57
2020/12/22 20:59:33;;;;;;;2.95;1.83;;;18.50;68.00;;;;;;10497895;28;20384;-58
2020/12/22 21:04:33;;;;;;;3.80;1.52;;;18.40;68.50;;;;;;10497834;28;20067;-57
2020/12/22 21:09:34;;;;;;;4.10;1.73;;;18.30;68.60;;;;;;10497518;28;20048;-58
2020/12/22 21:14:35;;;;;;;2.85;1.63;;;18.20;69.00;;;;;;10496028;28;20115;-58
2020/12/22 21:19:35;;;;;;;4.25;1.60;;;18.10;69.30;;;;;;10495977;28;20082;-57
2020/12/22 21:24:36;;;;;;;3.95;1.88;;;18.00;69.50;;;;;;10495981;28;20031;-58
2020/12/22 21:29:37;;;;;;;4.88;1.90;;;18.00;69.60;;;;;;10497020;28;20021;-58
2020/12/22 21:34:37;;;;;;;3.13;2.03;;;18.00;69.90;;;;;;10496890;28;20108;-58
2020/12/22 21:39:38;;;;;;;2.70;1.73;;;17.90;69.80;;;;;;10512742;28;20021;-57
2020/12/22 21:44:39;;;;;;;3.00;2.00;;;17.90;69.90;;;;;;10496840;28;20107;-58
2020/12/22 21:49:39;;;;;;;2.45;1.77;;;17.90;69.90;;;;;;10495715;28;20050;-58
2020/12/22 21:54:40;;;;;;;3.60;1.92;;;17.80;69.90;;;;;;10496357;28;20028;-58
2020/12/22 21:59:41;;;;;;;3.25;2.03;;;17.80;69.90;;;;;;10495122;28;20502;-58
2020/12/22 22:04:41;;;;;;;4.10;2.10;;;17.80;69.90;;;;;;10496401;28;20500;-58
2020/12/22 22:09:42;;;;;;;4.55;2.03;;;17.80;69.90;;;;;;10496032;28;20076;-58
2020/12/22 22:14:43;;;;;;;3.33;2.03;;;17.80;69.90;;;;;;10494823;28;20472;-58
2020/12/22 22:19:44;;;;;;;5.40;2.40;;;17.70;70.50;;;;;;10496227;28;20028;-58
2020/12/22 22:24:44;;;;;;;3.85;1.80;;;17.70;70.00;;;;;;10494455;28;20100;-58
2020/12/22 22:29:45;;;;;;;3.15;1.77;;;17.70;70.20;;;;;;10495678;28;20032;-58
2020/12/22 22:34:46;;;;;;;2.95;1.83;;;17.70;70.00;;;;;;10495806;28;20020;-58
2020/12/22 22:39:46;;;;;;;5.65;2.00;;;17.60;70.00;;;;;;10495863;28;20048;-57
2020/12/22 22:44:47;;;;;;;3.22;1.88;;;17.60;70.00;;;;;;10495524;28;20071;-58
2020/12/22 22:49:48;;;;;;;3.42;1.95;;;17.60;70.10;;;;;;10494216;28;20063;-58
2020/12/22 22:54:48;;;;;;;3.67;2.22;;;17.60;70.10;;;;;;10495496;28;20099;-58
2020/12/22 22:59:49;;;;;;;4.35;2.33;;;17.60;70.10;;;;;;10510865;28;20083;-58
2020/12/22 23:04:50;;;;;;;2.80;2.10;;;17.50;70.10;;;;;;10501797;28;20096;-58
2020/12/22 23:09:51;;;;;;;3.45;1.70;;;17.50;70.10;;;;;;10502414;28;20373;-58
2020/12/22 23:14:51;;;;;;;3.38;2.05;;;17.50;70.10;;;;;;10502169;28;20109;-58
2020/12/22 23:19:52;;;;;;;3.25;2.10;;;17.50;70.20;;;;;;10502058;28;20031;-58
2020/12/22 23:24:53;;;;;;;3.60;1.80;;;17.50;70.20;;;;;;10501932;28;20056;-58
2020/12/22 23:29:55;;;;;;;3.05;1.95;;;17.50;70.20;;;;;;10502182;28;20448;-58
2020/12/22 23:34:56;;;;;;;3.20;1.80;;;17.50;70.30;;;;;;10517027;28;20032;-58
2020/12/22 23:39:57;;;;;;;2.33;1.75;;;17.40;70.20;;;;;;10501230;28;20033;-58
2020/12/22 23:44:57;;;;;;;3.13;1.83;;;17.40;70.30;;;;;;10501301;28;20100;-58
2020/12/22 23:49:58;;;;;;;4.85;2.33;;;17.40;70.30;;;;;;10500695;28;20135;-58
2020/12/22 23:54:59;;;;;;;2.83;1.95;;;17.40;70.30;;;;;;10499230;28;20453;-58
2020/12/22 23:59:59;;;;;;;3.85;2.15;;;17.40;70.40;;;;;;10500682;28;20718;-59
